createdAt,value
2018-03-22T00:00:23.648Z,26.30
2018-03-22T00:02:53.869Z,26.30
2018-03-22T00:05:24.016Z,26.30
2018-03-22T00:07:54.719Z,26.30
2018-03-22T00:10:25.820Z,26.80
2018-03-22T00:12:56.622Z,26.40
2018-03-22T00:15:27.438Z,26.40
2018-03-22T00:17:58.269Z,26.30
2018-03-22T00:20:29.821Z,26.40
2018-03-22T00:23:00.777Z,26.30
2018-03-22T00:25:31.970Z,26.30
2018-03-22T00:28:02.433Z,26.30
2018-03-22T00:30:32.940Z,26.30
2018-03-22T00:33:02.847Z,26.30
2018-03-22T00:35:33.515Z,26.30
2018-03-22T00:38:04.545Z,26.30
2018-03-22T00:40:35.449Z,26.40
2018-03-22T00:43:08.313Z,26.40
2018-03-22T00:45:39.720Z,26.40
2018-03-22T00:48:09.592Z,26.40
2018-03-22T00:50:39.442Z,26.40
2018-03-22T00:53:10.611Z,26.30
2018-03-22T00:55:41.299Z,26.30
2018-03-22T00:58:11.746Z,26.30
2018-03-22T01:00:41.693Z,26.30
2018-03-22T01:03:11.987Z,26.30
2018-03-22T01:05:42.459Z,26.30
2018-03-22T01:08:12.632Z,26.40
2018-03-22T01:10:42.741Z,26.40
2018-03-22T01:13:13.696Z,26.40
2018-03-22T01:15:44.163Z,26.30
2018-03-22T01:18:14.748Z,26.40
2018-03-22T01:20:44.830Z,26.30
2018-03-22T01:23:14.480Z,26.30
2018-03-22T01:25:45.105Z,26.30
2018-03-22T01:28:16.900Z,25.90
2018-03-22T01:30:48.904Z,26.30
2018-03-22T01:33:19.367Z,26.30
2018-03-22T01:35:50.113Z,26.40
2018-03-22T01:38:20.659Z,26.40
2018-03-22T01:40:50.429Z,26.40
2018-03-22T01:43:20.341Z,26.40
2018-03-22T01:45:51.424Z,26.40
2018-03-22T01:48:25.283Z,26.40
2018-03-22T01:50:55.204Z,26.80
2018-03-22T01:53:25.156Z,26.30
2018-03-22T01:55:57.343Z,26.30
2018-03-22T01:58:27.919Z,26.30
2018-03-22T02:00:58.389Z,26.40
2018-03-22T02:03:29.393Z,26.50
2018-03-22T02:05:59.299Z,26.60
2018-03-22T02:08:30.033Z,26.60
2018-03-22T02:11:02.941Z,26.60
2018-03-22T02:13:32.509Z,26.80
2018-03-22T02:16:03.156Z,26.80
2018-03-22T02:18:33.687Z,26.80
2018-03-22T02:21:05.566Z,26.80
2018-03-22T02:23:36.808Z,26.80
2018-03-22T02:26:06.705Z,26.80
2018-03-22T02:28:37.130Z,26.60
2018-03-22T02:31:07.574Z,26.60
2018-03-22T02:33:38.522Z,26.50
2018-03-22T02:36:08.308Z,26.50
2018-03-22T02:38:38.119Z,26.40
2018-03-22T02:41:08.998Z,26.40
2018-03-22T02:43:39.175Z,26.40
2018-03-22T02:46:10.125Z,26.50
2018-03-22T02:48:40.545Z,27.10
2018-03-22T02:51:10.893Z,26.50
2018-03-22T02:53:40.577Z,26.50
2018-03-22T02:56:10.837Z,26.50
2018-03-22T02:58:42.009Z,26.40
2018-03-22T03:01:11.588Z,26.40
2018-03-22T03:03:42.803Z,26.40
2018-03-22T03:06:12.501Z,26.40
2018-03-22T03:08:42.209Z,26.40
2018-03-22T03:11:12.952Z,26.40
2018-03-22T03:13:42.857Z,26.50
2018-03-22T03:16:12.879Z,26.50
2018-03-22T03:18:42.481Z,26.50
2018-03-22T03:21:13.052Z,26.50
2018-03-22T03:23:45.077Z,26.50
2018-03-22T03:26:15.712Z,26.40
2018-03-22T03:28:45.954Z,26.40
2018-03-22T03:31:17.075Z,26.50
2018-03-22T03:33:46.989Z,26.80
2018-03-22T03:36:16.796Z,26.50
2018-03-22T03:38:47.479Z,26.50
2018-03-22T03:41:18.475Z,26.50
2018-03-22T03:43:48.116Z,26.60
2018-03-22T03:46:17.787Z,26.60
2018-03-22T03:48:47.496Z,26.50
2018-03-22T03:51:17.209Z,26.50
2018-03-22T03:53:47.940Z,26.50
2018-03-22T03:56:18.672Z,26.40
2018-03-22T03:58:48.320Z,26.40
2018-03-22T04:01:18.091Z,26.40
2018-03-22T04:03:48.842Z,26.40
2018-03-22T04:06:18.603Z,26.40
2018-03-22T04:08:50.659Z,26.30
2018-03-22T04:11:20.871Z,26.20
2018-03-22T04:13:52.099Z,26.30
2018-03-22T04:16:22.596Z,26.30
2018-03-22T04:18:52.432Z,26.30
2018-03-22T04:21:24.562Z,26.30
2018-03-22T04:23:54.223Z,26.90
2018-03-22T04:26:24.003Z,26.40
2018-03-22T04:28:54.420Z,26.40
2018-03-22T04:31:24.098Z,26.40
2018-03-22T04:33:55.734Z,26.40
2018-03-22T04:36:26.362Z,26.40
2018-03-22T04:38:56.069Z,26.30
2018-03-22T04:41:26.806Z,26.30
2018-03-22T04:43:56.738Z,26.30
2018-03-22T04:46:28.024Z,26.40
2018-03-22T04:48:57.785Z,26.40
2018-03-22T04:51:28.378Z,27.00
2018-03-22T04:53:58.728Z,26.40
2018-03-22T04:56:33.309Z,26.50
2018-03-22T04:59:03.976Z,26.50
2018-03-22T05:01:34.386Z,26.50
2018-03-22T05:04:05.566Z,26.40
2018-03-22T05:06:35.880Z,26.40
2018-03-22T05:09:06.974Z,26.40
2018-03-22T05:11:38.569Z,26.50
2018-03-22T05:14:10.457Z,26.50
2018-03-22T05:16:43.070Z,26.50
2018-03-22T05:19:13.495Z,26.60
2018-03-22T05:21:43.865Z,26.60
2018-03-22T05:24:15.064Z,26.50
2018-03-22T05:26:46.355Z,26.50
2018-03-22T05:29:16.420Z,26.40
2018-03-22T05:31:47.416Z,26.50
2018-03-22T05:37:02.807Z,26.50
2018-03-22T05:39:34.361Z,26.60
2018-03-22T05:42:05.153Z,26.50
2018-03-22T05:44:35.074Z,26.60
2018-03-22T05:47:05.084Z,27.20
2018-03-22T05:49:35.040Z,26.80
2018-03-22T05:52:06.552Z,26.90
2018-03-22T05:54:36.481Z,27.10
2018-03-22T05:57:07.196Z,27.20
2018-03-22T05:59:37.745Z,27.30
2018-03-22T06:02:08.051Z,27.40
2018-03-22T06:04:37.868Z,27.40
2018-03-22T06:07:08.904Z,27.50
2018-03-22T06:09:39.524Z,27.50
2018-03-22T06:12:10.163Z,27.40
2018-03-22T06:14:40.740Z,27.30
2018-03-22T06:17:11.499Z,27.20
2018-03-22T06:19:42.058Z,28.50
2018-03-22T06:22:11.925Z,27.70
2018-03-22T06:24:42.004Z,27.50
2018-03-22T06:27:13.748Z,27.40
2018-03-22T06:29:44.393Z,27.30
2018-03-22T06:32:14.426Z,27.20
2018-03-22T06:34:44.329Z,27.20
2018-03-22T06:37:16.378Z,27.10
2018-03-22T06:39:46.022Z,27.00
2018-03-22T06:42:16.511Z,27.10
2018-03-22T06:44:46.284Z,27.10
2018-03-22T06:47:16.237Z,27.10
2018-03-22T06:49:46.152Z,27.10
2018-03-22T06:52:16.428Z,27.10
2018-03-22T06:54:46.697Z,27.10
2018-03-22T06:57:19.102Z,27.10
2018-03-22T06:59:49.190Z,27.10
2018-03-22T07:02:19.464Z,27.10
2018-03-22T07:04:50.245Z,27.00
2018-03-22T07:07:20.573Z,27.00
2018-03-22T07:09:51.916Z,27.00
2018-03-22T07:12:22.158Z,27.00
2018-03-22T07:14:53.178Z,27.20
2018-03-22T07:17:23.196Z,27.10
2018-03-22T07:19:53.121Z,27.10
2018-03-22T07:22:23.645Z,27.20
2018-03-22T07:24:53.707Z,27.10
2018-03-22T07:27:24.850Z,27.20
2018-03-22T07:29:54.813Z,27.20
2018-03-22T07:32:29.853Z,27.20
2018-03-22T07:35:01.404Z,28.20
2018-03-22T07:37:32.138Z,28.40
2018-03-22T07:40:03.079Z,28.60
2018-03-22T07:42:32.988Z,29.10
2018-03-22T07:45:07.623Z,29.30
2018-03-22T07:47:37.531Z,29.50
2018-03-22T07:50:10.822Z,29.90
2018-03-22T07:52:40.956Z,29.50
2018-03-22T07:55:12.887Z,29.50
2018-03-22T07:57:42.714Z,29.60
2018-03-22T08:00:13.448Z,29.40
2018-03-22T08:02:44.184Z,29.40
2018-03-22T08:05:15.963Z,30.00
2018-03-22T08:07:46.759Z,31.30
2018-03-22T08:10:16.587Z,32.00
2018-03-22T08:12:49.756Z,32.40
2018-03-22T08:15:22.951Z,32.60
2018-03-22T08:17:54.740Z,32.30
2018-03-22T08:20:37.127Z,31.60
2018-03-22T08:23:18.543Z,31.40
2018-03-22T08:25:55.112Z,31.20
2018-03-22T08:28:34.123Z,31.10
2018-03-22T08:31:03.828Z,31.20
2018-03-22T08:33:34.160Z,31.30
2018-03-22T08:36:04.895Z,31.60
2018-03-22T08:38:34.936Z,31.90
2018-03-22T08:41:07.552Z,31.90
2018-03-22T08:43:37.618Z,32.20
2018-03-22T08:46:07.408Z,32.30
2018-03-22T08:48:37.234Z,32.70
2018-03-22T08:51:07.080Z,31.90
2018-03-22T08:53:38.579Z,31.40
2018-03-22T08:56:09.627Z,31.40
2018-03-22T08:58:39.952Z,31.40
2018-03-22T09:01:09.659Z,31.30
2018-03-22T09:03:40.629Z,31.10
2018-03-22T09:06:10.306Z,31.10
2018-03-22T09:08:40.227Z,30.80
2018-03-22T09:11:10.956Z,30.50
2018-03-22T09:13:40.666Z,30.30
2018-03-22T09:16:10.580Z,30.30
2018-03-22T09:18:41.935Z,30.10
2018-03-22T09:21:12.750Z,33.50
2018-03-22T09:23:42.781Z,33.60
2018-03-22T09:26:13.359Z,33.40
2018-03-22T09:28:43.224Z,33.50
2018-03-22T09:31:13.956Z,33.40
2018-03-22T09:33:45.247Z,33.30
2018-03-22T09:36:14.913Z,33.40
2018-03-22T09:38:45.445Z,32.80
2018-03-22T09:41:15.574Z,32.90
2018-03-22T09:43:45.482Z,32.60
2018-03-22T09:46:15.286Z,32.90
2018-03-22T09:48:46.727Z,35.90
2018-03-22T09:51:16.641Z,38.40
2018-03-22T09:53:46.635Z,38.90
2018-03-22T09:56:16.482Z,36.00
2018-03-22T09:58:46.599Z,36.40
2018-03-22T10:01:17.128Z,35.90
2018-03-22T10:03:47.950Z,35.90
2018-03-22T10:06:18.600Z,35.60
2018-03-22T10:08:48.509Z,35.30
2018-03-22T10:11:18.320Z,35.20
2018-03-22T10:13:48.235Z,35.10
2018-03-22T10:16:23.253Z,35.00
2018-03-22T10:18:56.420Z,35.20
2018-03-22T10:21:26.452Z,35.30
2018-03-22T10:24:03.311Z,35.20
2018-03-22T10:26:36.871Z,35.30
2018-03-22T10:29:09.487Z,35.30
2018-03-22T10:31:46.719Z,35.20
2018-03-22T10:34:18.480Z,35.60
2018-03-22T10:36:50.239Z,34.60
2018-03-22T10:39:22.299Z,34.40
2018-03-22T10:41:58.812Z,34.30
2018-03-22T10:44:33.418Z,34.60
2018-03-22T10:47:06.759Z,35.10
2018-03-22T10:49:40.249Z,35.40
2018-03-22T10:52:16.345Z,35.40
2018-03-22T10:54:51.570Z,35.80
2018-03-22T10:57:24.368Z,35.50
2018-03-22T10:59:58.558Z,35.30
2018-03-22T11:02:36.071Z,35.30
2018-03-22T11:05:09.068Z,35.40
2018-03-22T11:07:41.020Z,35.50
2018-03-22T11:10:12.880Z,35.50
2018-03-22T11:12:44.313Z,36.10
2018-03-22T11:15:18.875Z,35.70
2018-03-22T11:18:05.220Z,35.70
2018-03-22T11:23:25.510Z,36.40
2018-03-22T11:26:08.165Z,36.60
2018-03-22T11:28:54.774Z,36.70
2018-03-22T11:31:27.564Z,36.70
2018-03-22T11:34:00.348Z,36.80
2018-03-22T11:36:34.534Z,36.50
2018-03-22T11:39:08.709Z,36.30
2018-03-22T11:41:42.172Z,36.40
2018-03-22T11:44:17.028Z,36.10
2018-03-22T11:46:51.585Z,36.30
2018-03-22T11:49:22.578Z,36.20
2018-03-22T11:51:57.877Z,36.50
2018-03-22T11:54:35.811Z,36.30
2018-03-22T12:00:13.211Z,36.00
2018-03-22T12:03:01.981Z,35.80
2018-03-22T12:06:59.010Z,35.80
2018-03-22T12:09:34.127Z,35.80
2018-03-22T12:12:07.470Z,35.40
2018-03-22T12:14:48.070Z,34.90
2018-03-22T12:17:23.058Z,35.00
2018-03-22T12:19:53.179Z,34.80
2018-03-22T12:22:32.104Z,34.60
2018-03-22T12:25:06.310Z,34.50
2018-03-22T12:27:36.542Z,34.50
2018-03-22T12:30:17.720Z,34.50
2018-03-22T12:32:51.437Z,34.40
2018-03-22T12:35:23.431Z,35.20
2018-03-22T12:37:57.679Z,35.50
2018-03-22T12:40:34.168Z,35.60
2018-03-22T12:43:09.356Z,34.10
2018-03-22T12:45:42.375Z,34.60
2018-03-22T12:48:26.649Z,35.00
2018-03-22T12:51:00.721Z,35.60
2018-03-22T12:53:32.789Z,35.20
2018-03-22T12:56:09.051Z,35.00
2018-03-22T12:58:39.741Z,35.00
2018-03-22T13:01:18.450Z,34.70
2018-03-22T13:03:54.049Z,34.90
2018-03-22T13:06:33.832Z,34.80
2018-03-22T13:09:13.523Z,35.30
2018-03-22T13:11:49.864Z,36.20
2018-03-22T13:14:25.780Z,34.30
2018-03-22T13:17:08.002Z,34.30
2018-03-22T13:19:43.646Z,35.70
2018-03-22T13:22:18.937Z,37.30
2018-03-22T13:24:56.279Z,37.20
2018-03-22T13:27:34.685Z,37.50
2018-03-22T13:30:10.185Z,36.50
2018-03-22T13:32:42.661Z,36.50
2018-03-22T13:35:17.342Z,36.70
2018-03-22T13:37:53.504Z,36.60
2018-03-22T13:40:29.881Z,36.20
2018-03-22T13:43:11.040Z,36.20
2018-03-22T13:45:50.805Z,36.70
2018-03-22T13:48:25.281Z,35.60
2018-03-22T13:50:58.395Z,34.50
2018-03-22T13:53:34.768Z,33.70
2018-03-22T13:56:07.323Z,33.10
2018-03-22T13:58:45.355Z,32.70
2018-03-22T14:01:21.397Z,32.40
2018-03-22T14:03:51.986Z,32.10
2018-03-22T14:06:23.009Z,31.90
2018-03-22T14:08:52.883Z,31.80
2018-03-22T14:11:22.697Z,31.70
2018-03-22T14:13:52.545Z,31.60
2018-03-22T14:16:22.216Z,31.40
2018-03-22T14:18:52.133Z,31.40
2018-03-22T14:21:21.946Z,31.30
2018-03-22T14:23:52.680Z,31.20
2018-03-22T14:26:23.620Z,31.00
2018-03-22T14:28:54.351Z,31.00
2018-03-22T14:31:24.264Z,30.90
2018-03-22T14:33:54.078Z,30.80
2018-03-22T14:36:23.791Z,30.80
2018-03-22T14:38:53.801Z,30.80
2018-03-22T14:41:23.410Z,30.80
2018-03-22T14:43:54.455Z,30.70
2018-03-22T14:46:25.085Z,30.70
2018-03-22T14:48:54.796Z,30.60
2018-03-22T14:51:24.569Z,30.60
2018-03-22T14:53:55.036Z,30.60
2018-03-22T14:56:24.736Z,30.40
2018-03-22T14:58:56.088Z,30.40
2018-03-22T15:01:25.799Z,30.40
2018-03-22T15:03:56.323Z,30.40
2018-03-22T15:06:28.020Z,30.50
2018-03-22T15:08:57.736Z,30.40
2018-03-22T15:11:27.772Z,30.50
2018-03-22T15:13:57.626Z,30.60
2018-03-22T15:16:28.966Z,30.70
2018-03-22T15:18:58.781Z,30.70
2018-03-22T15:21:28.804Z,30.70
2018-03-22T15:23:59.741Z,30.60
2018-03-22T15:26:29.751Z,30.40
2018-03-22T15:28:59.563Z,30.20
2018-03-22T15:31:29.684Z,30.10
2018-03-22T15:34:00.117Z,30.10
2018-03-22T15:36:29.961Z,30.10
2018-03-22T15:39:01.213Z,30.00
2018-03-22T15:41:30.979Z,30.00
2018-03-22T15:44:00.996Z,31.00
2018-03-22T15:46:32.624Z,30.50
2018-03-22T15:49:02.593Z,30.20
2018-03-22T15:51:33.449Z,30.20
2018-03-22T15:54:04.441Z,30.20
2018-03-22T15:56:34.255Z,30.10
2018-03-22T15:59:06.422Z,30.00
2018-03-22T16:01:36.643Z,30.00
2018-03-22T16:04:06.661Z,30.00
2018-03-22T16:06:37.313Z,29.90
2018-03-22T16:09:08.111Z,30.00
2018-03-22T16:11:38.758Z,30.00
2018-03-22T16:14:09.429Z,29.90
2018-03-22T16:16:39.104Z,29.90
2018-03-22T16:19:08.811Z,29.90
2018-03-22T16:21:38.671Z,29.90
2018-03-22T16:24:08.842Z,29.90
2018-03-22T16:26:38.560Z,29.90
2018-03-22T16:29:10.531Z,29.90
2018-03-22T16:31:42.581Z,29.90
2018-03-22T16:34:12.445Z,29.80
2018-03-22T16:36:42.223Z,29.70
2018-03-22T16:39:12.737Z,29.70
2018-03-22T16:41:42.753Z,29.70
2018-03-22T16:44:14.917Z,29.70
2018-03-22T16:46:44.968Z,29.70
2018-03-22T16:49:14.949Z,29.70
2018-03-22T16:51:46.707Z,29.70
2018-03-22T16:54:17.236Z,29.70
2018-03-22T16:56:48.332Z,29.70
2018-03-22T16:59:19.315Z,29.70
2018-03-22T17:01:49.845Z,29.70
2018-03-22T17:04:22.422Z,29.60
2018-03-22T17:06:53.821Z,29.70
2018-03-22T17:09:24.196Z,29.60
2018-03-22T17:11:54.635Z,29.60
2018-03-22T17:14:25.411Z,29.90
2018-03-22T17:16:55.290Z,29.60
2018-03-22T17:19:25.287Z,29.50
2018-03-22T17:21:55.154Z,29.60
2018-03-22T17:24:26.708Z,29.60
2018-03-22T17:27:00.971Z,29.60
2018-03-22T17:29:32.805Z,29.60
2018-03-22T17:32:02.645Z,29.50
2018-03-22T17:34:32.560Z,29.50
2018-03-22T17:37:03.088Z,29.40
2018-03-22T17:39:32.802Z,29.50
2018-03-22T17:42:02.881Z,29.40
2018-03-22T17:44:33.665Z,29.40
2018-03-22T17:47:03.928Z,29.40
2018-03-22T17:49:33.840Z,29.70
2018-03-22T17:52:04.416Z,29.50
2018-03-22T17:54:36.592Z,29.50
2018-03-22T17:57:06.604Z,29.40
2018-03-22T17:59:36.800Z,29.40
2018-03-22T18:02:06.941Z,29.40
2018-03-22T18:04:37.035Z,29.40
2018-03-22T18:07:07.082Z,29.40
2018-03-22T18:09:37.194Z,29.30
2018-03-22T18:12:07.451Z,29.30
2018-03-22T18:14:38.054Z,29.30
2018-03-22T18:17:07.962Z,29.30
2018-03-22T18:19:38.042Z,29.30
2018-03-22T18:22:07.875Z,29.30
2018-03-22T18:24:38.196Z,29.40
2018-03-22T18:27:08.746Z,29.30
2018-03-22T18:29:40.213Z,29.40
2018-03-22T18:32:10.221Z,29.40
2018-03-22T18:34:41.059Z,29.30
2018-03-22T18:37:13.164Z,29.40
2018-03-22T18:39:43.440Z,29.30
2018-03-22T18:42:14.493Z,29.30
2018-03-22T18:44:44.468Z,29.20
2018-03-22T18:47:16.469Z,29.80
2018-03-22T18:49:47.600Z,29.30
2018-03-22T18:52:17.466Z,29.30
2018-03-22T18:54:48.129Z,29.30
2018-03-22T18:57:19.192Z,29.30
2018-03-22T18:59:49.920Z,29.30
2018-03-22T19:02:19.888Z,29.30
2018-03-22T19:04:49.738Z,29.20
2018-03-22T19:07:20.806Z,29.20
2018-03-22T19:09:50.705Z,29.20
2018-03-22T19:12:22.063Z,29.20
2018-03-22T19:14:51.970Z,29.20
2018-03-22T19:17:21.985Z,29.10
2018-03-22T19:19:52.112Z,29.10
2018-03-22T19:22:21.812Z,29.20
2018-03-22T19:24:51.725Z,29.20
2018-03-22T19:27:22.464Z,29.20
2018-03-22T19:29:52.684Z,29.20
2018-03-22T19:32:22.701Z,29.10
2018-03-22T19:34:52.590Z,29.10
2018-03-22T19:37:22.808Z,29.10
2018-03-22T19:39:54.291Z,29.10
2018-03-22T19:42:24.917Z,29.10
2018-03-22T19:44:55.666Z,28.60
2018-03-22T19:47:26.282Z,29.50
2018-03-22T19:49:56.912Z,29.10
2018-03-22T19:52:27.670Z,29.10
2018-03-22T19:54:59.098Z,29.20
2018-03-22T19:57:29.399Z,29.20
2018-03-22T20:00:00.568Z,29.10
2018-03-22T20:02:30.328Z,29.10
2018-03-22T20:05:04.346Z,29.10
2018-03-22T20:07:34.201Z,29.00
2018-03-22T20:10:04.183Z,29.00
2018-03-22T20:12:35.229Z,29.00
2018-03-22T20:15:05.185Z,29.00
2018-03-22T20:17:35.114Z,29.00
2018-03-22T20:20:06.433Z,29.00
2018-03-22T20:22:36.351Z,29.00
2018-03-22T20:25:08.491Z,29.10
2018-03-22T20:27:39.670Z,29.00
2018-03-22T20:30:09.574Z,29.00
2018-03-22T20:32:41.919Z,29.00
2018-03-22T20:35:12.019Z,29.00
2018-03-22T20:37:42.814Z,29.00
2018-03-22T20:40:12.823Z,29.00
2018-03-22T20:42:44.008Z,28.90
2018-03-22T20:45:14.216Z,28.90
2018-03-22T20:47:45.091Z,28.90
2018-03-22T20:50:15.134Z,28.90
2018-03-22T20:52:46.556Z,28.90
2018-03-22T20:55:16.667Z,28.90
2018-03-22T20:57:47.333Z,29.00
2018-03-22T21:00:17.818Z,28.90
2018-03-22T21:02:47.821Z,28.90
2018-03-22T21:05:17.895Z,28.80
2018-03-22T21:07:48.011Z,28.90
2018-03-22T21:10:20.192Z,28.80
2018-03-22T21:12:53.083Z,28.80
2018-03-22T21:15:24.107Z,28.80
2018-03-22T21:17:55.090Z,28.80
2018-03-22T21:20:25.578Z,28.80
2018-03-22T21:22:57.159Z,28.80
2018-03-22T21:25:27.246Z,28.90
2018-03-22T21:27:57.470Z,28.90
2018-03-22T21:30:28.916Z,28.90
2018-03-22T21:32:59.246Z,28.90
2018-03-22T21:35:29.565Z,28.90
2018-03-22T21:37:59.633Z,28.90
2018-03-22T21:40:30.215Z,28.90
2018-03-22T21:43:00.286Z,28.80
2018-03-22T21:45:30.043Z,28.80
2018-03-22T21:47:59.958Z,28.80
2018-03-22T21:50:38.677Z,28.80
2018-03-22T21:53:09.415Z,28.80
2018-03-22T21:55:39.531Z,28.90
2018-03-22T21:58:09.523Z,28.90
2018-03-22T22:00:39.634Z,28.90
2018-03-22T22:03:10.509Z,29.40
2018-03-22T22:05:41.043Z,28.80
2018-03-22T22:08:10.742Z,28.80
2018-03-22T22:10:42.292Z,28.80
2018-03-22T22:13:12.220Z,28.80
2018-03-22T22:15:43.350Z,28.80
2018-03-22T22:18:13.980Z,28.90
2018-03-22T22:20:45.341Z,28.90
2018-03-22T22:23:15.857Z,28.80
2018-03-22T22:25:45.674Z,28.80
2018-03-22T22:28:16.198Z,28.80
2018-03-22T22:30:47.767Z,28.80
2018-03-22T22:33:17.460Z,28.80
2018-03-22T22:35:47.172Z,28.80
2018-03-22T22:38:16.937Z,28.70
2018-03-22T22:40:46.770Z,28.70
2018-03-22T22:43:16.712Z,28.70
2018-03-22T22:45:48.569Z,28.80
2018-03-22T22:48:19.301Z,28.80
2018-03-22T22:50:49.831Z,28.80
2018-03-22T22:53:19.955Z,28.80
2018-03-22T22:55:50.046Z,28.70
2018-03-22T22:58:19.984Z,28.70
2018-03-22T23:00:49.904Z,28.70
2018-03-22T23:03:19.813Z,28.60
2018-03-22T23:05:49.522Z,28.60
2018-03-22T23:08:20.278Z,28.60
2018-03-22T23:10:51.297Z,28.60
2018-03-22T23:13:21.829Z,28.60
2018-03-22T23:15:54.015Z,28.60
2018-03-22T23:18:23.907Z,28.60
2018-03-22T23:20:56.082Z,28.60
2018-03-22T23:23:27.016Z,28.60
2018-03-22T23:26:00.353Z,28.60
2018-03-22T23:28:32.816Z,28.70
2018-03-22T23:31:02.900Z,28.60
2018-03-22T23:33:32.614Z,28.60
2018-03-22T23:36:02.796Z,28.60
2018-03-22T23:38:32.442Z,28.60
2018-03-22T23:41:03.590Z,28.60
2018-03-22T23:43:35.546Z,28.60
2018-03-22T23:46:07.116Z,28.70
2018-03-22T23:48:41.320Z,28.70
2018-03-22T23:51:11.848Z,29.10
2018-03-22T23:53:42.529Z,28.60
2018-03-22T23:56:12.387Z,28.60
2018-03-22T23:58:43.529Z,28.60
